TimeEDT,TemperatureF,Dew PointF,Humidity,Sea Level PressureIn,VisibilityMPH,Wind Direction,Wind SpeedMPH,Gust SpeedMPH,PrecipitationIn,Events,Conditions,WindDirDegrees,DateUTC
12:54 AM,46.9,37.0,68,29.37,10.0,WSW,15.0,29.9,N/A,,Overcast,240,2012-10-30 04:54:00
1:54 AM,46.9,37.9,71,29.37,10.0,WSW,16.1,21.9,0.00,,Overcast,250,2012-10-30 05:54:00
3:54 AM,45.0,39.0,80,29.38,10.0,SW,11.5,19.6,0.01,Rain,Light Rain,230,2012-10-30 07:54:00
4:54 AM,46.9,37.0,68,29.39,10.0,WSW,9.2,-,0.00,,Overcast,240,2012-10-30 08:54:00
5:54 AM,46.9,37.0,68,29.41,10.0,SW,13.8,20.7,N/A,,Overcast,220,2012-10-30 09:54:00
6:54 AM,46.9,37.0,68,29.43,10.0,WSW,13.8,19.6,N/A,,Overcast,240,2012-10-30 10:54:00
7:54 AM,46.9,37.0,68,29.46,10.0,WSW,10.4,-,N/A,,Overcast,240,2012-10-30 11:54:00
8:54 AM,46.9,36.0,66,29.49,10.0,West,11.5,20.7,N/A,,Overcast,260,2012-10-30 12:54:00
9:54 AM,48.9,37.0,64,29.50,10.0,WSW,9.2,-,0.00,Rain,Light Rain,240,2012-10-30 13:54:00
10:54 AM,50.0,37.0,61,29.50,10.0,SW,16.1,21.9,0.00,,Mostly Cloudy,220,2012-10-30 14:54:00
11:54 AM,53.1,35.1,50,29.50,10.0,WSW,18.4,25.3,N/A,,Partly Cloudy,250,2012-10-30 15:54:00
12:54 PM,55.0,34.0,45,29.49,10.0,WSW,15.0,24.2,N/A,,Mostly Cloudy,250,2012-10-30 16:54:00
1:54 PM,55.9,34.0,44,29.48,10.0,West,11.5,20.7,N/A,,Overcast,260,2012-10-30 17:54:00
2:54 PM,53.1,36.0,52,29.49,10.0,West,13.8,19.6,N/A,,Overcast,270,2012-10-30 18:54:00
3:54 PM,50.0,39.9,68,29.51,10.0,West,11.5,-,N/A,,Overcast,270,2012-10-30 19:54:00
4:54 PM,51.1,37.0,59,29.52,10.0,WSW,10.4,-,N/A,,Overcast,250,2012-10-30 20:54:00
5:54 PM,48.9,39.9,71,29.54,10.0,Calm,Calm,-,N/A,,Clear,0,2012-10-30 21:54:00
6:54 PM,50.0,42.1,74,29.57,10.0,SSW,4.6,-,N/A,,Overcast,210,2012-10-30 22:54:00
7:54 PM,50.0,41.0,71,29.60,10.0,WSW,4.6,-,N/A,,Overcast,250,2012-10-30 23:54:00
8:54 PM,50.0,41.0,71,29.62,10.0,WNW,3.5,-,N/A,,Overcast,290,2012-10-31 00:54:00
9:54 PM,50.0,37.9,63,29.63,10.0,WSW,3.5,-,N/A,,Mostly Cloudy,250,2012-10-31 01:54:00
10:54 PM,48.9,39.0,69,29.64,10.0,WSW,3.5,-,N/A,,Clear,240,2012-10-31 02:54:00
11:54 PM,48.0,39.9,74,29.65,10.0,SW,5.8,-,N/A,,Clear,230,2012-10-31 03:54:00